createdAt,value
2024-02-08T00:01:25.976Z,95923.72
2024-02-08T00:04:12.146Z,95920.28
2024-02-08T00:06:57.873Z,95917.09
2024-02-08T00:09:43.210Z,95922.09
2024-02-08T00:12:28.833Z,95924.50
2024-02-08T00:15:17.213Z,95921.09
2024-02-08T00:18:03.169Z,95920.28
2024-02-08T00:20:49.043Z,95923.91
2024-02-08T00:23:38.262Z,95919.47
2024-02-08T00:26:23.661Z,95916.03
2024-02-08T00:29:09.967Z,95921.50
2024-02-08T00:31:56.052Z,95915.47
2024-02-08T00:34:41.953Z,95922.75
2024-02-08T00:37:27.409Z,95919.34
2024-02-08T00:40:13.089Z,95925.38
2024-02-08T00:42:58.896Z,95922.97
2024-02-08T00:45:44.581Z,95914.31
2024-02-08T00:48:30.360Z,95924.78
2024-02-08T00:51:16.305Z,95935.25
2024-02-08T00:54:02.946Z,95921.16
2024-02-08T00:56:48.396Z,95927.63
2024-02-08T00:59:33.838Z,95923.22
2024-02-08T01:02:19.493Z,95921.59
2024-02-08T01:05:05.349Z,95923.41
2024-02-08T01:07:50.970Z,95926.84
2024-02-08T01:10:36.591Z,95922.03
2024-02-08T01:13:23.174Z,95915.19
2024-02-08T01:16:12.779Z,95918.81
2024-02-08T01:18:58.854Z,95923.03
2024-02-08T01:21:45.399Z,95916.19
2024-02-08T01:24:30.726Z,95918.81
2024-02-08T01:27:22.141Z,95916.19
2024-02-08T01:30:09.210Z,95916.19
2024-02-08T01:32:56.404Z,95914.16
2024-02-08T01:35:41.814Z,95915.19
2024-02-08T01:38:28.696Z,95899.44
2024-02-08T01:41:15.014Z,95898.44
2024-02-08T01:44:05.151Z,95895.81
2024-02-08T01:46:51.660Z,95894.56
2024-02-08T01:49:37.808Z,95899.03
2024-02-08T01:52:23.757Z,95895.81
2024-02-08T01:55:10.155Z,95885.34
2024-02-08T01:57:55.735Z,95880.09
2024-02-08T02:00:41.592Z,95864.84
2024-02-08T02:03:33.163Z,95872.09
2024-02-08T02:06:19.068Z,95868.69
2024-02-08T02:09:04.880Z,95871.50
2024-02-08T02:11:56.674Z,95866.72
2024-02-08T02:14:42.794Z,95870.13
2024-02-08T02:17:28.543Z,95870.94
2024-02-08T02:20:14.946Z,95861.47
2024-02-08T02:23:01.877Z,95860.47
2024-02-08T02:25:52.942Z,95865.72
2024-02-08T02:28:38.667Z,95854.19
2024-02-08T02:31:25.529Z,95846.31
2024-02-08T02:34:11.447Z,95845.31
2024-02-08T02:36:59.820Z,95846.69
2024-02-08T02:39:46.684Z,95842.25
2024-02-08T02:42:31.994Z,95842.03
2024-02-08T02:45:23.222Z,95842.25
2024-02-08T02:48:09.419Z,95846.50
2024-02-08T02:50:55.285Z,95840.19
2024-02-08T02:53:41.307Z,95837.59
2024-02-08T02:56:29.306Z,95836.38
2024-02-08T02:59:18.698Z,95833.53
2024-02-08T03:02:04.314Z,95829.28
2024-02-08T03:04:50.441Z,95826.69
2024-02-08T03:07:36.390Z,95826.69
2024-02-08T03:10:23.464Z,95813.69
2024-02-08T03:13:09.425Z,95816.44
2024-02-08T03:15:56.120Z,95807.88
2024-02-08T03:18:47.435Z,95809.13
2024-02-08T03:21:41.461Z,95802.97
2024-02-08T03:24:33.709Z,95804.16
2024-02-08T03:27:22.983Z,95810.31
2024-02-08T03:30:20.569Z,95813.16
2024-02-08T03:33:16.681Z,95808.81
2024-02-08T03:36:08.186Z,95808.84
2024-02-08T03:38:54.327Z,95813.53
2024-02-08T03:41:40.203Z,95809.00
2024-02-08T03:44:27.251Z,95812.03
2024-02-08T03:47:13.793Z,95808.19
2024-02-08T03:50:01.142Z,95821.97
2024-02-08T03:52:46.837Z,95813.09
2024-02-08T03:55:32.148Z,95817.13
2024-02-08T03:58:19.280Z,95825.88
2024-02-08T04:01:05.243Z,95812.22
2024-02-08T04:04:13.174Z,95817.00
2024-02-08T04:07:15.878Z,95812.84
2024-02-08T04:10:21.165Z,95809.72
2024-02-08T04:13:25.690Z,95814.72
2024-02-08T04:16:33.322Z,95809.22
2024-02-08T04:19:37.633Z,95805.06
2024-02-08T04:22:42.014Z,95799.78
2024-02-08T04:25:46.285Z,95809.28
2024-02-08T04:28:50.790Z,95800.09
2024-02-08T04:31:54.994Z,95803.50
2024-02-08T04:35:02.323Z,95794.03
2024-02-08T04:38:06.730Z,95803.03
2024-02-08T04:41:11.032Z,95786.19
2024-02-08T04:44:15.071Z,95778.81
2024-02-08T04:47:19.280Z,95787.28
2024-02-08T04:50:24.057Z,95785.75
2024-02-08T04:53:28.993Z,95782.63
2024-02-08T04:56:19.796Z,95776.84
2024-02-08T04:59:20.771Z,95778.97
2024-02-08T05:02:09.046Z,95779.53
2024-02-08T05:04:54.962Z,95767.97
2024-02-08T05:07:41.866Z,95769.53
2024-02-08T05:10:29.547Z,95772.47
2024-02-08T05:13:15.771Z,95775.91
2024-02-08T05:16:01.327Z,95775.41
2024-02-08T05:18:49.282Z,95775.97
2024-02-08T05:21:42.485Z,95782.84
2024-02-08T05:24:29.613Z,95779.69
2024-02-08T05:27:15.495Z,95778.66
2024-02-08T05:30:00.843Z,95788.72
2024-02-08T05:32:46.992Z,95779.78
2024-02-08T05:35:34.650Z,95776.88
2024-02-08T05:38:23.201Z,95780.84
2024-02-08T05:41:10.740Z,95789.31
2024-02-08T05:43:56.015Z,95795.38
2024-02-08T05:46:41.641Z,95784.56
2024-02-08T05:49:31.794Z,95790.41
2024-02-08T05:52:17.773Z,95787.28
2024-02-08T05:55:04.626Z,95778.31
2024-02-08T05:57:50.157Z,95785.19
2024-02-08T06:00:47.153Z,95778.84
2024-02-08T06:03:39.237Z,95797.88
2024-02-08T06:06:35.243Z,95787.84
2024-02-08T06:09:56.280Z,95791.88
2024-02-08T06:12:45.971Z,95793.44
2024-02-08T06:15:35.181Z,95788.47
2024-02-08T06:18:21.795Z,95788.22
2024-02-08T06:21:16.339Z,95783.72
2024-02-08T06:24:21.760Z,95777.66
2024-02-08T06:27:14.799Z,95764.22
2024-02-08T06:30:09.197Z,95776.09
2024-02-08T06:33:18.176Z,95778.50
2024-02-08T06:36:08.917Z,95785.09
2024-02-08T06:38:54.926Z,95785.94
2024-02-08T06:41:54.491Z,95773.25
2024-02-08T06:44:40.429Z,95780.69
2024-02-08T06:47:51.973Z,95783.63
2024-02-08T06:50:56.203Z,95782.31
2024-02-08T06:54:01.601Z,95795.81
2024-02-08T06:57:05.832Z,95792.91
2024-02-08T07:00:09.910Z,95790.28
2024-02-08T07:03:14.452Z,95790.00
2024-02-08T07:06:18.836Z,95773.94
2024-02-08T07:09:22.969Z,95775.53
2024-02-08T07:12:37.613Z,95788.75
2024-02-08T07:15:42.219Z,95794.53
2024-02-08T07:18:52.069Z,95789.28
2024-02-08T07:21:59.382Z,95798.31
2024-02-08T07:25:04.264Z,95809.19
2024-02-08T07:28:08.349Z,95798.91
2024-02-08T07:31:12.953Z,95798.41
2024-02-08T07:34:16.999Z,95802.38
2024-02-08T07:37:26.490Z,95795.78
2024-02-08T07:40:25.450Z,95796.06
2024-02-08T07:43:17.795Z,95809.84
2024-02-08T07:46:06.613Z,95801.66
2024-02-08T07:48:59.987Z,95808.53
2024-02-08T07:51:51.595Z,95809.06
2024-02-08T07:54:40.680Z,95800.09
2024-02-08T07:57:27.585Z,95798.00
2024-02-08T08:00:33.465Z,95807.28
2024-02-08T08:03:25.095Z,95793.81
2024-02-08T08:06:11.422Z,95788.00
2024-02-08T08:08:59.747Z,95786.94
2024-02-08T08:11:53.988Z,95782.47
2024-02-08T08:14:40.789Z,95784.84
2024-02-08T08:17:26.641Z,95795.97
2024-02-08T08:20:38.390Z,95790.44
2024-02-08T08:23:28.388Z,95783.84
2024-02-08T08:26:25.861Z,95782.78
2024-02-08T08:29:18.556Z,95795.47
2024-02-08T08:32:24.734Z,95793.13
2024-02-08T08:35:29.107Z,95799.22
2024-02-08T08:38:35.924Z,95795.50
2024-02-08T08:41:25.724Z,95797.66
2024-02-08T08:44:11.580Z,95778.88
2024-02-08T08:47:02.279Z,95784.47
2024-02-08T08:49:52.431Z,95785.56
2024-02-08T08:52:49.179Z,95788.25
2024-02-08T08:55:40.856Z,95782.41
2024-02-08T08:58:29.443Z,95787.22
2024-02-08T09:01:23.820Z,95795.69
2024-02-08T09:04:24.235Z,95800.44
2024-02-08T09:07:13.514Z,95795.44
2024-02-08T09:10:03.072Z,95787.25
2024-02-08T09:13:01.359Z,95783.53
2024-02-08T09:15:57.373Z,95779.84
2024-02-08T09:19:03.341Z,95781.72
2024-02-08T09:21:51.598Z,95788.06
2024-02-08T09:24:43.635Z,95775.69
2024-02-08T09:27:35.549Z,95777.78
2024-02-08T09:30:40.644Z,95792.59
2024-02-08T09:33:32.677Z,95780.44
2024-02-08T09:36:18.724Z,95783.34
2024-02-08T09:39:16.194Z,95770.41
2024-02-08T09:42:09.105Z,95781.00
2024-02-08T09:45:17.558Z,95785.25
2024-02-08T09:48:07.770Z,95790.81
2024-02-08T09:51:12.809Z,95785.00
2024-02-08T09:54:16.573Z,95792.69
2024-02-08T09:57:10.361Z,95791.63
2024-02-08T10:00:11.956Z,95782.09
2024-02-08T10:03:05.359Z,95793.22
2024-02-08T10:05:58.888Z,95798.25
2024-02-08T10:08:56.039Z,95792.19
2024-02-08T10:11:46.191Z,95784.25
2024-02-08T10:14:34.378Z,95782.41
2024-02-08T10:17:26.224Z,95787.97
2024-02-08T10:20:14.917Z,95789.03
2024-02-08T10:23:32.698Z,95782.69
2024-02-08T10:26:21.423Z,95782.41
2024-02-08T10:29:08.970Z,95779.50
2024-02-08T10:31:55.623Z,95779.50
2024-02-08T10:34:44.929Z,95775.28
2024-02-08T10:37:48.901Z,95766.25
2024-02-08T10:40:40.364Z,95766.25
2024-02-08T10:43:27.105Z,95767.34
2024-02-08T10:46:18.180Z,95759.63
2024-02-08T10:49:10.681Z,95760.44
2024-02-08T10:52:02.398Z,95764.16
2024-02-08T10:54:53.983Z,95759.91
2024-02-08T10:58:01.854Z,95745.88
2024-02-08T11:00:49.136Z,95746.66
2024-02-08T11:03:37.947Z,95744.03
2024-02-08T11:06:35.679Z,95752.22
2024-02-08T11:09:20.940Z,95733.94
2024-02-08T11:12:31.626Z,95731.06
2024-02-08T11:15:32.015Z,95735.03
2024-02-08T11:18:34.988Z,95734.47
2024-02-08T11:21:29.791Z,95732.63
2024-02-08T11:24:30.061Z,95725.75
2024-02-08T11:27:29.107Z,95717.28
2024-02-08T11:30:20.878Z,95713.56
2024-02-08T11:33:13.718Z,95711.19
2024-02-08T11:36:16.568Z,95721.75
2024-02-08T11:39:22.033Z,95715.94
2024-02-08T11:42:18.225Z,95704.53
2024-02-08T11:45:10.380Z,95699.25
2024-02-08T11:47:59.613Z,95712.75
2024-02-08T11:50:48.469Z,95719.09
2024-02-08T11:53:34.450Z,95711.72
2024-02-08T11:56:21.780Z,95705.06
2024-02-08T11:59:08.943Z,95702.19
2024-02-08T12:01:55.053Z,95695.28
2024-02-08T12:04:40.932Z,95690.25
2024-02-08T12:07:26.538Z,95691.31
2024-02-08T12:10:16.881Z,95683.38
2024-02-08T12:13:03.016Z,95681.50
2024-02-08T12:15:58.011Z,95680.97
2024-02-08T12:18:44.190Z,95678.84
2024-02-08T12:21:29.554Z,95673.00
2024-02-08T12:24:17.836Z,95665.06
2024-02-08T12:27:22.837Z,95666.13
2024-02-08T12:30:09.542Z,95663.19
2024-02-08T12:32:56.503Z,95652.84
2024-02-08T12:35:42.899Z,95653.88
2024-02-08T12:38:28.936Z,95654.94
2024-02-08T12:41:15.679Z,95648.84
2024-02-08T12:44:01.479Z,95660.75
2024-02-08T12:46:50.980Z,95654.94
2024-02-08T12:49:38.008Z,95657.59
2024-02-08T12:52:24.269Z,95658.09
2024-02-08T12:55:10.517Z,95646.72
2024-02-08T12:58:03.950Z,95643.00
2024-02-08T13:01:06.337Z,95635.56
2024-02-08T13:03:55.781Z,95637.16
2024-02-08T13:06:43.251Z,95642.19
2024-02-08T13:09:31.408Z,95633.72
2024-02-08T13:12:21.278Z,95641.66
2024-02-08T13:15:21.586Z,95625.75
2024-02-08T13:18:11.205Z,95624.44
2024-02-08T13:20:58.471Z,95619.91
2024-02-08T13:23:44.175Z,95617.78
2024-02-08T13:26:35.940Z,95613.00
2024-02-08T13:29:27.517Z,95603.72
2024-02-08T13:32:13.070Z,95610.63
2024-02-08T13:35:00.292Z,95597.06
2024-02-08T13:37:51.806Z,95598.66
2024-02-08T13:40:44.459Z,95583.00
2024-02-08T13:43:32.106Z,95585.91
2024-02-08T13:46:17.924Z,95574.53
2024-02-08T13:49:07.735Z,95574.47
2024-02-08T13:51:53.764Z,95572.84
2024-02-08T13:54:39.993Z,95569.16
2024-02-08T13:57:25.701Z,95566.75
2024-02-08T14:00:11.478Z,95553.72
2024-02-08T14:03:02.231Z,95543.88
2024-02-08T14:05:52.679Z,95539.41
2024-02-08T14:08:44.424Z,95540.19
2024-02-08T14:11:39.592Z,95537.47
2024-02-08T14:14:41.672Z,95535.34
2024-02-08T14:17:35.806Z,95538.53
2024-02-08T14:20:44.185Z,95528.19
2024-02-08T14:23:40.257Z,95523.97
2024-02-08T14:26:35.061Z,95520.50
2024-02-08T14:29:21.533Z,95516.25
2024-02-08T14:32:16.939Z,95519.19
2024-02-08T14:35:17.874Z,95519.25
2024-02-08T14:38:05.185Z,95525.59
2024-02-08T14:40:55.086Z,95530.13
2024-02-08T14:43:48.004Z,95513.16
2024-02-08T14:46:34.122Z,95525.41
2024-02-08T14:49:28.129Z,95511.91
2024-02-08T14:52:26.056Z,95510.59
2024-02-08T14:55:12.152Z,95512.72
2024-02-08T14:58:01.204Z,95513.25
2024-02-08T15:00:47.155Z,95508.78
2024-02-08T15:03:38.098Z,95511.72
2024-02-08T15:06:55.771Z,95512.25
2024-02-08T15:09:41.299Z,95505.34
2024-02-08T15:12:34.091Z,95497.97
2024-02-08T15:15:34.906Z,95488.97
2024-02-08T15:18:31.632Z,95496.19
2024-02-08T15:21:27.239Z,95493.28
2024-02-08T15:24:15.045Z,95491.72
2024-02-08T15:27:09.071Z,95504.72
2024-02-08T15:30:06.656Z,95495.22
2024-02-08T15:32:57.967Z,95492.84
2024-02-08T15:35:53.406Z,95486.25
2024-02-08T15:38:56.626Z,95491.56
2024-02-08T15:41:52.793Z,95481.22
2024-02-08T15:44:46.899Z,95482.28
2024-02-08T15:47:35.900Z,95488.38
2024-02-08T15:50:26.421Z,95480.69
2024-02-08T15:53:21.298Z,95478.06
2024-02-08T15:56:09.456Z,95485.22
2024-02-08T15:59:04.381Z,95482.28
2024-02-08T16:01:53.282Z,95474.34
2024-02-08T16:04:46.315Z,95480.41
2024-02-08T16:07:34.184Z,95488.38
2024-02-08T16:10:26.142Z,95488.13
2024-02-08T16:13:11.889Z,95466.66
2024-02-08T16:15:57.890Z,95471.13
2024-02-08T16:18:51.076Z,95475.66
2024-02-08T16:21:36.955Z,95475.38
2024-02-08T16:24:22.410Z,95480.66
2024-02-08T16:27:14.416Z,95463.19
2024-02-08T16:30:00.741Z,95468.50
2024-02-08T16:32:57.286Z,95463.19
2024-02-08T16:35:59.065Z,95480.41
2024-02-08T16:38:58.131Z,95455.00
2024-02-08T16:41:52.400Z,95469.53
2024-02-08T16:44:52.437Z,95481.16
2024-02-08T16:47:53.194Z,95473.75
2024-02-08T16:50:47.100Z,95466.31
2024-02-08T16:53:35.252Z,95478.22
2024-02-08T16:56:23.248Z,95474.25
2024-02-08T16:59:16.835Z,95487.97
2024-02-08T17:02:09.153Z,95480.56
2024-02-08T17:05:10.451Z,95479.50
2024-02-08T17:08:03.362Z,95481.09
2024-02-08T17:10:56.949Z,95477.88
2024-02-08T17:13:52.392Z,95482.94
2024-02-08T17:16:47.149Z,95486.06
2024-02-08T17:19:35.585Z,95481.28
2024-02-08T17:22:24.066Z,95483.94
2024-02-08T17:25:15.560Z,95478.38
2024-02-08T17:28:04.142Z,95489.50
2024-02-08T17:31:01.848Z,95480.47
2024-02-08T17:33:51.304Z,95471.97
2024-02-08T17:36:45.190Z,95453.16
2024-02-08T17:39:41.769Z,95465.56
2024-02-08T17:42:32.002Z,95452.31
2024-02-08T17:45:19.308Z,95465.56
2024-02-08T17:48:13.115Z,95454.69
2024-02-08T17:51:08.387Z,95455.19
2024-02-08T17:53:54.842Z,95456.78
2024-02-08T17:56:43.513Z,95458.09
2024-02-08T17:59:30.698Z,95461.56
2024-02-08T18:02:22.704Z,95467.13
2024-02-08T18:05:16.077Z,95475.56
2024-02-08T18:08:01.974Z,95460.69
2024-02-08T18:10:48.867Z,95441.84
2024-02-08T18:13:34.684Z,95438.13
2024-02-08T18:16:20.530Z,95442.13
2024-02-08T18:19:07.279Z,95449.53
2024-02-08T18:21:53.054Z,95453.22
2024-02-08T18:24:38.522Z,95447.91
2024-02-08T18:27:29.255Z,95440.50
2024-02-08T18:30:19.847Z,95439.72
2024-02-08T18:33:06.495Z,95435.97
2024-02-08T18:35:54.543Z,95414.28
2024-02-08T18:38:40.993Z,95426.72
2024-02-08T18:41:27.185Z,95420.63
2024-02-08T18:44:14.984Z,95423.56
2024-02-08T18:47:04.642Z,95421.69
2024-02-08T18:49:54.703Z,95423.28
2024-02-08T18:55:45.318Z,95419.63
2024-02-08T18:58:34.170Z,95424.41
2024-02-08T19:01:22.568Z,95426.25
2024-02-08T19:04:12.197Z,95426.00
2024-02-08T19:06:58.052Z,95414.59
2024-02-08T19:09:44.722Z,95413.00
2024-02-08T19:12:30.234Z,95406.13
2024-02-08T19:15:15.515Z,95398.19
2024-02-08T19:18:16.149Z,95395.00
2024-02-08T19:21:02.104Z,95389.44
2024-02-08T19:23:47.706Z,95399.03
2024-02-08T19:26:34.073Z,95400.88
2024-02-08T19:29:25.778Z,95391.63
2024-02-08T19:32:20.579Z,95386.59
2024-02-08T19:35:11.512Z,95381.84
2024-02-08T19:37:59.238Z,95379.75
2024-02-08T19:40:44.684Z,95381.38
2024-02-08T19:43:36.516Z,95386.41
2024-02-08T19:46:22.256Z,95382.47
2024-02-08T19:49:09.436Z,95384.06
2024-02-08T19:52:22.767Z,95384.06
2024-02-08T19:55:22.346Z,95377.16
2024-02-08T19:58:11.806Z,95388.28
2024-02-08T20:01:00.598Z,95387.78
2024-02-08T20:03:48.701Z,95390.16
2024-02-08T20:06:35.585Z,95388.00
2024-02-08T20:09:21.794Z,95385.09
2024-02-08T20:12:14.255Z,95390.41
2024-02-08T20:14:59.748Z,95389.31
2024-02-08T20:17:51.202Z,95385.34
2024-02-08T20:20:38.328Z,95382.94
2024-02-08T20:23:33.823Z,95377.94
2024-02-08T20:26:25.548Z,95381.94
2024-02-08T20:29:15.941Z,95384.59
2024-02-08T20:32:01.756Z,95382.72
2024-02-08T20:34:48.267Z,95381.41
2024-02-08T20:37:34.015Z,95371.88
2024-02-08T20:40:23.279Z,95371.09
2024-02-08T20:43:12.020Z,95377.16
2024-02-08T20:46:00.630Z,95360.50
2024-02-08T20:48:47.394Z,95366.31
2024-02-08T20:51:34.361Z,95371.34
2024-02-08T20:54:20.150Z,95365.47
2024-02-08T20:57:11.511Z,95375.00
2024-02-08T20:59:57.759Z,95357.78
2024-02-08T21:02:43.591Z,95357.56
2024-02-08T21:05:30.106Z,95351.75
2024-02-08T21:08:17.927Z,95347.00
2024-02-08T21:11:03.705Z,95349.38
2024-02-08T21:13:50.358Z,95359.19
2024-02-08T21:16:41.164Z,95365.03
2024-02-08T21:19:27.056Z,95378.81
2024-02-08T21:22:15.623Z,95370.84
2024-02-08T21:25:01.578Z,95382.00
2024-02-08T21:27:53.735Z,95383.56
2024-02-08T21:30:48.710Z,95372.72
2024-02-08T21:33:34.596Z,95363.97
2024-02-08T21:36:26.177Z,95379.88
2024-02-08T21:39:20.071Z,95380.16
2024-02-08T21:42:07.997Z,95388.38
2024-02-08T21:44:53.794Z,95387.84
2024-02-08T21:47:40.486Z,95392.38
2024-02-08T21:50:26.172Z,95393.16
2024-02-08T21:53:14.616Z,95382.56
2024-02-08T21:56:00.315Z,95385.22
2024-02-08T21:58:45.931Z,95376.72
2024-02-08T22:01:38.070Z,95380.16
